createdAt,value
2023-02-11T00:04:09.922Z,-6.87
2023-02-11T00:09:12.449Z,-6.89
2023-02-11T00:14:15.157Z,-7.02
2023-02-11T00:19:17.669Z,-7.01
2023-02-11T00:24:20.198Z,-7.10
2023-02-11T00:29:22.797Z,-7.16
2023-02-11T00:34:25.630Z,-7.06
2023-02-11T00:39:31.274Z,-7.05
2023-02-11T00:44:33.814Z,-7.01
2023-02-11T00:49:37.201Z,-6.91
2023-02-11T00:54:39.646Z,-7.08
2023-02-11T00:59:42.656Z,-7.15
2023-02-11T01:04:45.228Z,-7.29
2023-02-11T01:09:47.828Z,-7.27
2023-02-11T01:14:54.309Z,-7.34
2023-02-11T01:19:56.865Z,-7.52
2023-02-11T01:24:59.766Z,-7.78
2023-02-11T01:30:02.889Z,-7.86
2023-02-11T01:35:06.872Z,-7.92
2023-02-11T01:40:17.185Z,-7.95
2023-02-11T01:45:44.954Z,-8.04
2023-02-11T01:50:51.128Z,-8.07
2023-02-11T01:56:13.574Z,-8.19
2023-02-11T02:01:21.761Z,-8.27
2023-02-11T02:06:34.820Z,-8.22
2023-02-11T02:11:39.373Z,-8.17
2023-02-11T02:16:42.069Z,-8.04
2023-02-11T02:22:06.162Z,-7.87
2023-02-11T02:27:20.556Z,-7.92
2023-02-11T02:32:51.079Z,-8.01
2023-02-11T02:38:14.913Z,-7.98
2023-02-11T02:43:18.887Z,-8.02
2023-02-11T02:48:32.529Z,-7.90
2023-02-11T02:53:44.159Z,-7.85
2023-02-11T02:59:05.795Z,-7.92
2023-02-11T03:04:23.345Z,-8.02
2023-02-11T03:09:39.574Z,-7.96
2023-02-11T03:14:42.547Z,-7.85
2023-02-11T03:19:48.887Z,-7.73
2023-02-11T03:24:51.904Z,-7.77
2023-02-11T03:30:23.244Z,-7.77
2023-02-11T03:35:36.929Z,-7.81
2023-02-11T03:40:41.633Z,-7.89
2023-02-11T03:45:46.998Z,-7.87
2023-02-11T03:50:52.078Z,-7.96
2023-02-11T03:55:57.678Z,-7.96
2023-02-11T04:01:02.245Z,-8.03
2023-02-11T04:06:05.013Z,-8.00
2023-02-11T04:11:07.578Z,-8.02
2023-02-11T04:16:10.165Z,-8.06
2023-02-11T04:21:12.716Z,-8.12
2023-02-11T04:26:15.365Z,-8.77
2023-02-11T04:31:19.220Z,-9.02
2023-02-11T04:36:21.996Z,-9.07
2023-02-11T04:41:24.751Z,-8.93
2023-02-11T04:46:27.410Z,-8.76
2023-02-11T04:51:30.606Z,-8.82
2023-02-11T04:56:33.212Z,-8.73
2023-02-11T05:01:35.743Z,-8.66
2023-02-11T05:06:40.091Z,-8.78
2023-02-11T05:11:42.794Z,-8.72
2023-02-11T05:16:45.934Z,-8.78
2023-02-11T05:22:01.790Z,-8.81
2023-02-11T05:27:05.736Z,-8.80
2023-02-11T05:32:09.349Z,-8.76
2023-02-11T05:37:12.260Z,-8.73
2023-02-11T05:42:15.042Z,-8.54
2023-02-11T05:47:20.005Z,-8.42
2023-02-11T05:52:25.270Z,-8.41
2023-02-11T05:57:27.794Z,-8.21
2023-02-11T06:02:30.359Z,-8.14
2023-02-11T06:07:33.108Z,-8.23
2023-02-11T06:12:38.849Z,-8.06
2023-02-11T06:17:41.635Z,-7.96
2023-02-11T06:22:44.297Z,-7.81
2023-02-11T06:27:46.973Z,-7.70
2023-02-11T06:32:49.704Z,-7.52
2023-02-11T06:37:54.148Z,-7.34
2023-02-11T06:42:56.721Z,-7.34
2023-02-11T06:47:59.206Z,-7.20
2023-02-11T06:53:02.095Z,-7.03
2023-02-11T06:58:05.334Z,-6.95
2023-02-11T07:03:08.540Z,-6.85
2023-02-11T07:08:11.395Z,-6.71
2023-02-11T07:13:14.002Z,-6.41
2023-02-11T07:18:16.710Z,-6.30
2023-02-11T07:23:22.247Z,-6.18
2023-02-11T07:28:26.535Z,-6.11
2023-02-11T07:33:29.107Z,-5.81
2023-02-11T07:38:32.957Z,-5.64
2023-02-11T07:43:37.090Z,-5.51
2023-02-11T07:48:39.846Z,-5.49
2023-02-11T07:53:43.453Z,-5.39
2023-02-11T07:58:46.970Z,-5.08
2023-02-11T08:03:49.659Z,-4.97
2023-02-11T08:08:52.469Z,-4.68
2023-02-11T08:13:56.241Z,-4.51
2023-02-11T08:19:00.691Z,-4.17
2023-02-11T08:24:04.155Z,-4.15
2023-02-11T08:29:10.189Z,-4.01
2023-02-11T08:34:14.687Z,-4.01
2023-02-11T08:39:22.943Z,-3.85
2023-02-11T08:44:26.413Z,-3.66
2023-02-11T08:49:31.059Z,-3.49
2023-02-11T08:54:33.543Z,-3.60
2023-02-11T08:59:36.050Z,-3.58
2023-02-11T09:04:38.561Z,-3.55
2023-02-11T09:09:43.318Z,-3.55
2023-02-11T09:14:45.785Z,-3.40
2023-02-11T09:19:48.272Z,-3.21
2023-02-11T09:24:50.791Z,-3.15
2023-02-11T09:29:53.360Z,-2.99
2023-02-11T09:34:55.966Z,-2.74
2023-02-11T09:39:59.446Z,-2.52
2023-02-11T09:45:03.920Z,-2.48
2023-02-11T09:50:23.213Z,-2.29
2023-02-11T09:55:28.206Z,-2.06
2023-02-11T10:00:41.892Z,-2.18
2023-02-11T10:05:59.342Z,-2.19
2023-02-11T10:11:32.057Z,-2.19
2023-02-11T10:16:49.974Z,-2.02
2023-02-11T10:22:19.084Z,-1.90
2023-02-11T10:27:28.919Z,-1.58
2023-02-11T10:32:49.696Z,-1.55
2023-02-11T10:37:52.139Z,-1.38
2023-02-11T10:42:57.767Z,-1.46
2023-02-11T10:48:03.796Z,-1.21
2023-02-11T10:53:26.573Z,-0.94
2023-02-11T10:58:45.566Z,-0.97
2023-02-11T11:03:52.828Z,-0.93
2023-02-11T11:08:55.525Z,-0.99
2023-02-11T11:14:00.999Z,-0.83
2023-02-11T11:19:09.524Z,-0.54
2023-02-11T11:24:20.418Z,-0.58
2023-02-11T11:29:36.244Z,-0.20
2023-02-11T11:34:42.266Z,-0.14
2023-02-11T11:39:56.127Z,-0.23
2023-02-11T11:45:20.720Z,0.03
2023-02-11T11:50:32.623Z,0.32
2023-02-11T11:55:47.806Z,0.60
2023-02-11T12:01:04.820Z,1.86
2023-02-11T12:06:31.561Z,2.76
2023-02-11T12:11:41.304Z,2.99
2023-02-11T12:16:55.788Z,3.04
2023-02-11T12:22:05.907Z,3.66
2023-02-11T12:27:17.372Z,3.69
2023-02-11T12:32:53.973Z,3.73
2023-02-11T12:38:18.921Z,4.02
2023-02-11T12:43:28.889Z,4.15
2023-02-11T12:48:52.607Z,4.04
2023-02-11T12:54:17.949Z,3.97
2023-02-11T12:59:52.410Z,3.87
2023-02-11T13:05:00.916Z,3.86
2023-02-11T13:10:16.881Z,3.63
2023-02-11T13:15:19.418Z,3.57
2023-02-11T13:20:32.009Z,3.36
2023-02-11T13:25:46.050Z,3.19
2023-02-11T13:30:52.490Z,2.34
2023-02-11T13:35:58.161Z,0.69
2023-02-11T13:41:04.675Z,-0.29
2023-02-11T13:46:14.041Z,-0.88
2023-02-11T13:51:33.960Z,-1.38
2023-02-11T13:56:42.973Z,-1.70
2023-02-11T14:02:14.327Z,-2.05
2023-02-11T14:07:50.425Z,-2.38
2023-02-11T14:13:18.985Z,-2.62
2023-02-11T14:18:45.688Z,-2.98
2023-02-11T14:23:48.803Z,-3.22
2023-02-11T14:29:14.328Z,-3.38
2023-02-11T14:34:28.940Z,-3.55
2023-02-11T14:39:37.542Z,-3.66
2023-02-11T14:44:41.608Z,-3.78
2023-02-11T14:49:45.476Z,-3.91
2023-02-11T14:54:51.465Z,-4.09
2023-02-11T14:59:59.542Z,-4.19
2023-02-11T15:05:38.576Z,-4.18
2023-02-11T15:10:45.264Z,-4.28
2023-02-11T15:15:50.604Z,-4.37
2023-02-11T15:20:54.015Z,-4.51
2023-02-11T15:25:56.819Z,-4.62
2023-02-11T15:31:05.226Z,-4.78
2023-02-11T15:36:14.070Z,-4.79
2023-02-11T15:41:37.216Z,-4.83
2023-02-11T15:46:43.024Z,-4.92
2023-02-11T15:51:47.254Z,-4.98
2023-02-11T15:56:52.209Z,-5.07
2023-02-11T16:01:55.848Z,-5.16
2023-02-11T16:06:58.440Z,-5.28
2023-02-11T16:12:22.077Z,-5.26
2023-02-11T16:17:51.492Z,-5.29
2023-02-11T16:22:54.477Z,-5.34
2023-02-11T16:27:57.238Z,-5.31
2023-02-11T16:32:59.914Z,-5.36
2023-02-11T16:38:02.384Z,-5.47
2023-02-11T16:43:05.020Z,-5.44
2023-02-11T16:48:25.907Z,-5.46
2023-02-11T16:53:28.608Z,-5.56
2023-02-11T16:58:31.081Z,-5.57
2023-02-11T17:03:40.715Z,-5.59
2023-02-11T17:08:45.769Z,-5.71
2023-02-11T17:13:48.571Z,-5.71
2023-02-11T17:18:53.747Z,-5.73
2023-02-11T17:23:56.293Z,-5.80
2023-02-11T17:29:02.058Z,-5.89
2023-02-11T17:34:24.068Z,-5.99
2023-02-11T17:39:27.943Z,-6.00
2023-02-11T17:44:30.583Z,-5.91
2023-02-11T17:49:33.256Z,-5.85
2023-02-11T17:54:35.930Z,-5.82
2023-02-11T17:59:39.449Z,-5.93
2023-02-11T18:04:42.292Z,-6.02
2023-02-11T18:09:44.996Z,-6.14
2023-02-11T18:14:48.326Z,-6.18
2023-02-11T18:19:51.002Z,-6.22
2023-02-11T18:24:56.337Z,-6.24
2023-02-11T18:29:59.442Z,-6.38
2023-02-11T18:35:02.041Z,-6.42
2023-02-11T18:40:12.105Z,-6.38
2023-02-11T18:45:15.896Z,-6.39
2023-02-11T18:50:18.906Z,-6.39
2023-02-11T18:55:25.783Z,-6.41
2023-02-11T19:00:28.378Z,-6.46
2023-02-11T19:05:33.688Z,-6.54
2023-02-11T19:10:39.533Z,-6.60
2023-02-11T19:15:44.048Z,-6.61
2023-02-11T19:20:46.528Z,-6.61
2023-02-11T19:25:54.939Z,-6.63
2023-02-11T19:30:57.700Z,-6.75
2023-02-11T19:36:05.476Z,-6.84
2023-02-11T19:41:12.634Z,-6.89
2023-02-11T19:46:16.327Z,-7.00
2023-02-11T19:51:21.229Z,-7.08
2023-02-11T19:56:23.791Z,-7.04
2023-02-11T20:01:27.099Z,-7.19
2023-02-11T20:06:31.503Z,-7.07
2023-02-11T20:11:35.133Z,-6.96
2023-02-11T20:16:48.022Z,-6.97
2023-02-11T20:21:55.985Z,-6.94
2023-02-11T20:27:01.860Z,-7.07
2023-02-11T20:32:05.646Z,-7.07
2023-02-11T20:37:08.648Z,-7.28
2023-02-11T20:42:12.309Z,-7.26
2023-02-11T20:47:14.632Z,-7.31
2023-02-11T20:52:17.169Z,-7.42
2023-02-11T20:57:19.754Z,-7.38
2023-02-11T21:02:24.680Z,-7.36
2023-02-11T21:07:29.649Z,-7.36
2023-02-11T21:12:32.117Z,-7.27
2023-02-11T21:17:34.756Z,-7.29
2023-02-11T21:22:37.340Z,-7.42
2023-02-11T21:27:40.059Z,-7.55
2023-02-11T21:32:42.724Z,-7.84
2023-02-11T21:48:26.905Z,-7.87
2023-02-11T21:53:29.392Z,-7.86
2023-02-11T21:58:32.147Z,-7.90
2023-02-11T22:03:34.565Z,-7.89
2023-02-11T22:08:38.125Z,-7.95
2023-02-11T22:13:42.232Z,-7.90
2023-02-11T22:18:46.647Z,-7.90
2023-02-11T22:23:50.647Z,-7.98
2023-02-11T22:28:53.967Z,-7.98
2023-02-11T22:33:57.849Z,-8.03
2023-02-11T22:39:05.669Z,-8.08
2023-02-11T22:44:09.917Z,-8.05
2023-02-11T22:49:14.966Z,-8.01
2023-02-11T22:54:19.379Z,-8.09
2023-02-11T22:59:21.974Z,-8.21
2023-02-11T23:04:27.504Z,-8.22
2023-02-11T23:09:30.671Z,-8.22
2023-02-11T23:14:33.242Z,-8.29
2023-02-11T23:19:37.953Z,-8.38
2023-02-11T23:24:40.503Z,-8.45
2023-02-11T23:29:43.082Z,-8.52
2023-02-11T23:34:45.783Z,-8.52
2023-02-11T23:39:48.259Z,-8.46
2023-02-11T23:44:50.710Z,-8.52
2023-02-11T23:49:53.248Z,-8.44
2023-02-11T23:54:55.645Z,-8.41
